Time;durP1;ratioP1;P1;durP2;ratioP2;P2;SDS_P1;SDS_P2;PMS_P1;PMS_P2;Temp;Humidity;BMP_temperature;BMP_pressure;BME280_temperature;BME280_humidity;BME280_pressure;Samples;Min_cycle;Max_cycle;Signal;HPM_P1;HPM_P2
2021/10/21 00:01:59;;;;;;;31.83;4.20;;;;;;;;;;5069265;28;20179;-67
2021/10/21 00:04:26;;;;;;;27.77;4.70;;;;;;;;;;5050731;28;20044;-67
2021/10/21 00:06:52;;;;;;;43.33;6.73;;;;;;;;;;5070081;28;20164;-67
2021/10/21 00:09:19;;;;;;;44.80;4.95;;;;;;;;;;5065610;28;20323;-67
2021/10/21 00:11:45;;;;;;;34.58;4.97;;;;;;;;;;5062538;28;20139;-67
2021/10/21 00:14:12;;;;;;;34.13;4.63;;;;;;;;;;5071236;28;20140;-67
2021/10/21 00:16:38;;;;;;;25.85;4.65;;;;;;;;;;5068422;28;20084;-67
2021/10/21 00:19:04;;;;;;;29.02;5.40;;;;;;;;;;5063927;28;20099;-67
2021/10/21 00:21:31;;;;;;;40.50;4.55;;;;;;;;;;5062638;28;20885;-67
2021/10/21 00:23:58;;;;;;;28.92;4.40;;;;;;;;;;5067694;28;20076;-67
2021/10/21 00:26:24;;;;;;;29.42;4.22;;;;;;;;;;5068604;28;20132;-67
2021/10/21 00:28:51;;;;;;;24.42;5.38;;;;;;;;;;5061861;28;20056;-67
2021/10/21 00:31:17;;;;;;;34.30;5.22;;;;;;;;;;5062740;28;20236;-67
2021/10/21 00:33:44;;;;;;;28.98;4.88;;;;;;;;;;5055348;28;20053;-67
2021/10/21 00:36:10;;;;;;;26.08;5.13;;;;;;;;;;5066036;28;20199;-67
2021/10/21 00:38:37;;;;;;;26.50;4.95;;;;;;;;;;5069278;28;20131;-67
2021/10/21 00:41:04;;;;;;;35.20;4.35;;;;;;;;;;5066629;28;20104;-67
2021/10/21 00:43:49;;;;;;;27.65;4.25;;;;;;;;;;5066957;28;20090;-67
2021/10/21 00:46:15;;;;;;;24.17;4.32;;;;;;;;;;5066944;28;20084;-68
2021/10/21 00:48:42;;;;;;;30.10;4.22;;;;;;;;;;5069498;28;20086;-67
2021/10/21 00:51:12;;;;;;;28.00;3.90;;;;;;;;;;5063103;28;20083;-67
2021/10/21 00:53:39;;;;;;;31.50;4.70;;;;;;;;;;5061282;28;20080;-67
2021/10/21 00:56:06;;;;;;;;;;;;;;;;;;5062424;28;20075;-67
2021/10/21 00:58:33;;;;;;;27.52;3.78;;;;;;;;;;5066506;28;19962;-67
2021/10/21 01:01:00;;;;;;;28.48;5.20;;;;;;;;;;5066901;28;20139;-68
2021/10/21 01:03:27;;;;;;;31.27;4.70;;;;;;;;;;5067607;28;20063;-67
2021/10/21 01:05:54;;;;;;;27.83;4.78;;;;;;;;;;5066416;28;20064;-67
2021/10/21 01:08:21;;;;;;;23.90;3.55;;;;;;;;;;5063112;28;20131;-67
2021/10/21 01:10:47;;;;;;;30.20;4.05;;;;;;;;;;5069293;28;20072;-67
2021/10/21 01:13:14;;;;;;;32.38;5.50;;;;;;;;;;5071315;28;20087;-67
2021/10/21 01:15:40;;;;;;;30.20;4.70;;;;;;;;;;5061310;28;20040;-67
2021/10/21 01:18:07;;;;;;;22.60;3.95;;;;;;;;;;5062518;28;20088;-67
2021/10/21 01:20:34;;;;;;;34.70;4.28;;;;;;;;;;5062266;28;20072;-67
2021/10/21 01:23:00;;;;;;;22.33;4.10;;;;;;;;;;5063468;28;20619;-67
2021/10/21 01:25:27;;;;;;;23.70;3.90;;;;;;;;;;5066137;28;20385;-67
2021/10/21 01:27:53;;;;;;;33.28;4.07;;;;;;;;;;5066227;28;20167;-67
2021/10/21 01:30:21;;;;;;;30.17;4.07;;;;;;;;;;5061545;28;20072;-68
2021/10/21 01:32:48;;;;;;;24.80;4.10;;;;;;;;;;5063845;28;20545;-67
2021/10/21 01:35:14;;;;;;;31.48;3.70;;;;;;;;;;5065902;28;20072;-68
2021/10/21 01:37:41;;;;;;;30.75;3.47;;;;;;;;;;5065806;28;20080;-68
2021/10/21 01:40:10;;;;;;;29.40;4.13;;;;;;;;;;5063529;28;20037;-67
2021/10/21 01:42:40;;;;;;;32.00;3.78;;;;;;;;;;5069279;28;20080;-68
2021/10/21 01:45:15;;;;;;;30.83;3.85;;;;;;;;;;5061625;28;20135;-68
2021/10/21 01:47:41;;;;;;;27.95;3.85;;;;;;;;;;5070159;28;20083;-68
2021/10/21 01:50:08;;;;;;;36.03;4.15;;;;;;;;;;5060373;28;20069;-68
2021/10/21 01:52:34;;;;;;;35.60;3.75;;;;;;;;;;5062145;28;20131;-68
2021/10/21 01:55:01;;;;;;;26.07;3.77;;;;;;;;;;5066980;28;20132;-67
2021/10/21 01:57:27;;;;;;;24.67;4.15;;;;;;;;;;5069614;28;20846;-68
2021/10/21 01:59:54;;;;;;;22.60;4.07;;;;;;;;;;5062480;28;20619;-68
2021/10/21 02:02:20;;;;;;;26.15;4.38;;;;;;;;;;5065093;28;20115;-68
2021/10/21 02:04:47;;;;;;;21.83;3.60;;;;;;;;;;5062044;28;20049;-68
2021/10/21 02:07:14;;;;;;;28.10;4.25;;;;;;;;;;5061184;28;20088;-68
2021/10/21 02:09:40;;;;;;;19.40;3.17;;;;;;;;;;5063427;28;20151;-68
2021/10/21 02:12:06;;;;;;;22.63;3.15;;;;;;;;;;5062809;28;20059;-68
2021/10/21 02:14:33;;;;;;;19.33;3.20;;;;;;;;;;5058154;28;20136;-68
2021/10/21 02:17:01;;;;;;;15.32;2.70;;;;;;;;;;5057223;28;20529;-68
2021/10/21 02:19:28;;;;;;;21.67;3.30;;;;;;;;;;5063761;28;20144;-68
2021/10/21 02:21:55;;;;;;;20.43;2.67;;;;;;;;;;5062669;28;20622;-68
2021/10/21 02:24:21;;;;;;;14.07;2.30;;;;;;;;;;5061929;28;20156;-68
2021/10/21 02:26:48;;;;;;;17.42;2.80;;;;;;;;;;5063839;28;20365;-67
2021/10/21 02:29:14;;;;;;;19.73;2.35;;;;;;;;;;5063405;28;20505;-67
2021/10/21 02:31:41;;;;;;;16.65;2.58;;;;;;;;;;5061244;28;20080;-67
2021/10/21 02:34:07;;;;;;;16.52;2.70;;;;;;;;;;5062297;28;20135;-68
2021/10/21 02:36:34;;;;;;;16.45;2.65;;;;;;;;;;5063352;28;20140;-68
2021/10/21 02:39:01;;;;;;;23.98;3.50;;;;;;;;;;5063313;28;20072;-67
2021/10/21 02:41:28;;;;;;;10.50;2.83;;;;;;;;;;5061341;28;20040;-68
2021/10/21 02:43:55;;;;;;;19.33;3.28;;;;;;;;;;5061632;28;20041;-67
2021/10/21 02:46:22;;;;;;;21.00;4.17;;;;;;;;;;5059868;28;20463;-68
2021/10/21 02:48:48;;;;;;;21.92;3.75;;;;;;;;;;5066699;28;20695;-68
2021/10/21 02:51:15;;;;;;;8.95;2.50;;;;;;;;;;5063890;28;20463;-67
2021/10/21 02:53:41;;;;;;;19.47;2.97;;;;;;;;;;5064379;28;20500;-67
2021/10/21 02:56:08;;;;;;;24.15;4.13;;;;;;;;;;5060053;28;20330;-68
2021/10/21 02:58:34;;;;;;;25.10;3.38;;;;;;;;;;5068747;28;20072;-67
2021/10/21 03:01:01;;;;;;;15.97;3.77;;;;;;;;;;5066752;28;20213;-67
2021/10/21 03:03:27;;;;;;;16.08;3.33;;;;;;;;;;5068323;28;20095;-68
2021/10/21 03:05:53;;;;;;;15.05;2.97;;;;;;;;;;5060671;28;20053;-67
2021/10/21 03:08:20;;;;;;;18.07;3.53;;;;;;;;;;5059268;28;20135;-68
2021/10/21 03:10:48;;;;;;;19.75;3.30;;;;;;;;;;5058041;28;20072;-68
2021/10/21 03:13:15;;;;;;;18.60;3.30;;;;;;;;;;5061384;28;20081;-67
2021/10/21 03:15:42;;;;;;;27.42;4.75;;;;;;;;;;5063521;28;20056;-67
2021/10/21 03:18:08;;;;;;;18.20;3.40;;;;;;;;;;5069281;28;20063;-67
2021/10/21 03:20:35;;;;;;;23.00;4.18;;;;;;;;;;5064016;28;20495;-68
2021/10/21 03:23:02;;;;;;;25.42;4.53;;;;;;;;;;5067424;28;20131;-68
2021/10/21 03:25:29;;;;;;;30.08;4.85;;;;;;;;;;5064335;28;20128;-67
2021/10/21 03:27:57;;;;;;;34.25;5.13;;;;;;;;;;5066864;28;20076;-67
2021/10/21 03:30:24;;;;;;;16.85;4.63;;;;;;;;;;5064181;28;20497;-68
2021/10/21 03:32:51;;;;;;;28.13;4.57;;;;;;;;;;5066735;28;20196;-68
2021/10/21 03:35:17;;;;;;;25.17;5.23;;;;;;;;;;5060732;28;20087;-68
2021/10/21 03:37:44;;;;;;;23.30;4.35;;;;;;;;;;5065434;28;20080;-68
2021/10/21 03:40:11;;;;;;;28.23;5.07;;;;;;;;;;5067100;28;20083;-68
2021/10/21 03:42:38;;;;;;;20.30;4.35;;;;;;;;;;5068325;28;20103;-69
2021/10/21 03:45:05;;;;;;;22.00;4.32;;;;;;;;;;5068472;28;20140;-69
2021/10/21 03:47:32;;;;;;;28.90;4.35;;;;;;;;;;5069198;28;20049;-68
2021/10/21 03:49:58;;;;;;;21.30;4.03;;;;;;;;;;5068827;28;20128;-68
2021/10/21 03:52:25;;;;;;;28.93;4.80;;;;;;;;;;5061846;28;20111;-68
2021/10/21 03:54:51;;;;;;;28.05;4.15;;;;;;;;;;5063101;28;20045;-68
2021/10/21 03:57:18;;;;;;;23.75;4.55;;;;;;;;;;5066208;28;20584;-68
2021/10/21 03:59:47;;;;;;;26.20;3.87;;;;;;;;;;5065281;28;20535;-68
2021/10/21 04:02:13;;;;;;;21.27;3.80;;;;;;;;;;5067269;28;20327;-68
2021/10/21 04:04:40;;;;;;;23.25;4.32;;;;;;;;;;5065648;28;20052;-67
2021/10/21 04:07:06;;;;;;;28.20;4.25;;;;;;;;;;5070361;28;20131;-68
2021/10/21 04:09:33;;;;;;;25.95;4.32;;;;;;;;;;5070271;28;20086;-67
2021/10/21 04:11:59;;;;;;;23.45;4.40;;;;;;;;;;5067436;28;20084;-67
2021/10/21 04:14:26;;;;;;;27.27;4.87;;;;;;;;;;5063345;28;20084;-68
2021/10/21 04:16:56;;;;;;;24.05;4.07;;;;;;;;;;5067195;28;20306;-68
2021/10/21 04:19:22;;;;;;;25.65;4.82;;;;;;;;;;5066512;28;20653;-68
2021/10/21 04:21:49;;;;;;;34.33;4.53;;;;;;;;;;5059500;28;20055;-68
2021/10/21 04:24:16;;;;;;;32.55;5.20;;;;;;;;;;5062790;28;20456;-67
2021/10/21 04:26:42;;;;;;;31.50;4.82;;;;;;;;;;5060476;28;20083;-68
2021/10/21 04:29:09;;;;;;;34.80;4.53;;;;;;;;;;5063879;28;20131;-68
2021/10/21 04:31:35;;;;;;;23.10;4.18;;;;;;;;;;5066818;28;20338;-68
2021/10/21 04:34:02;;;;;;;29.90;4.45;;;;;;;;;;5068198;28;20095;-67
2021/10/21 04:36:28;;;;;;;28.33;4.55;;;;;;;;;;5063686;28;20406;-68
2021/10/21 04:38:55;;;;;;;29.60;4.57;;;;;;;;;;5068147;28;20064;-67
2021/10/21 04:41:21;;;;;;;27.05;4.43;;;;;;;;;;5070122;28;20072;-68
2021/10/21 04:43:48;;;;;;;31.33;5.22;;;;;;;;;;5062264;28;20099;-68
2021/10/21 04:46:14;;;;;;;32.08;4.35;;;;;;;;;;5066520;28;20091;-67
2021/10/21 04:48:41;;;;;;;34.15;4.43;;;;;;;;;;5063334;28;20484;-68
2021/10/21 04:51:08;;;;;;;44.65;5.65;;;;;;;;;;5065747;28;20451;-67
2021/10/21 04:53:34;;;;;;;36.17;5.68;;;;;;;;;;5067035;28;20135;-68
2021/10/21 04:56:01;;;;;;;32.78;5.25;;;;;;;;;;5066852;28;20060;-67
2021/10/21 04:58:29;;;;;;;37.40;4.70;;;;;;;;;;5067131;28;20076;-68
2021/10/21 05:00:56;;;;;;;35.10;5.05;;;;;;;;;;5059160;28;20060;-68
2021/10/21 05:03:22;;;;;;;36.85;5.68;;;;;;;;;;5057215;28;20052;-67
2021/10/21 05:05:49;;;;;;;37.65;5.55;;;;;;;;;;5061023;28;20515;-68
2021/10/21 05:08:15;;;;;;;33.95;5.32;;;;;;;;;;5065602;28;20140;-68
2021/10/21 05:10:42;;;;;;;28.13;4.82;;;;;;;;;;5063407;28;20044;-67
2021/10/21 05:13:10;;;;;;;48.63;5.13;;;;;;;;;;5059747;28;20049;-67
2021/10/21 05:15:37;;;;;;;61.05;6.32;;;;;;;;;;5065070;28;20083;-67
2021/10/21 05:18:03;;;;;;;30.52;5.25;;;;;;;;;;5063853;28;20136;-67
2021/10/21 05:20:31;;;;;;;46.45;5.32;;;;;;;;;;5060644;28;20124;-67
2021/10/21 05:22:57;;;;;;;42.03;6.47;;;;;;;;;;5062162;28;20103;-67
2021/10/21 05:25:23;;;;;;;40.90;5.65;;;;;;;;;;5066511;28;20099;-68
2021/10/21 05:27:50;;;;;;;37.10;6.38;;;;;;;;;;5062235;28;20596;-68
2021/10/21 05:30:17;;;;;;;41.20;5.68;;;;;;;;;;5062923;28;20098;-67
2021/10/21 05:32:43;;;;;;;45.92;5.50;;;;;;;;;;5062242;28;20079;-68
2021/10/21 05:35:14;;;;;;;56.50;6.15;;;;;;;;;;5069643;28;20054;-67
2021/10/21 05:37:41;;;;;;;44.10;6.60;;;;;;;;;;5061638;28;20049;-67
2021/10/21 05:40:07;;;;;;;42.72;6.53;;;;;;;;;;5070237;28;20472;-68
2021/10/21 05:42:34;;;;;;;45.28;6.03;;;;;;;;;;5063463;28;20067;-68
2021/10/21 05:45:00;;;;;;;41.85;5.95;;;;;;;;;;5065825;28;20091;-68
2021/10/21 05:47:27;;;;;;;46.15;6.55;;;;;;;;;;5064575;28;20082;-68
2021/10/21 05:49:54;;;;;;;55.60;7.17;;;;;;;;;;5064752;28;20087;-67
2021/10/21 05:52:24;;;;;;;46.95;6.78;;;;;;;;;;5064861;28;20049;-67
2021/10/21 05:54:51;;;;;;;52.20;6.38;;;;;;;;;;5062353;28;20056;-67
2021/10/21 05:57:18;;;;;;;;;;;;;;;;;;5061779;28;20534;-67
2021/10/21 05:59:44;;;;;;;43.85;5.72;;;;;;;;;;5065066;28;19982;-67
2021/10/21 06:02:11;;;;;;;44.08;6.70;;;;;;;;;;5064545;28;20095;-68
2021/10/21 06:04:37;;;;;;;49.67;6.22;;;;;;;;;;5063453;28;20045;-68
2021/10/21 06:07:04;;;;;;;34.35;6.65;;;;;;;;;;5066451;28;20135;-68
2021/10/21 06:09:30;;;;;;;41.70;5.73;;;;;;;;;;5062824;28;20107;-67
2021/10/21 06:11:57;;;;;;;42.42;5.65;;;;;;;;;;5066508;28;20102;-68
2021/10/21 06:14:24;;;;;;;41.17;6.68;;;;;;;;;;5064055;28;20136;-68
2021/10/21 06:16:51;;;;;;;52.90;6.15;;;;;;;;;;5064317;28;20103;-67
2021/10/21 06:19:19;;;;;;;33.22;5.43;;;;;;;;;;5064620;28;20135;-68
2021/10/21 06:21:47;;;;;;;;;;;;;;;;;;5068300;28;20044;-68
2021/10/21 06:24:16;;;;;;;45.67;6.32;;;;;;;;;;5063994;28;19979;-67
2021/10/21 06:26:43;;;;;;;44.03;6.10;;;;;;;;;;5063268;28;20131;-67
2021/10/21 06:29:09;;;;;;;35.72;6.13;;;;;;;;;;5066879;28;20088;-67
2021/10/21 06:31:36;;;;;;;39.22;6.65;;;;;;;;;;5056229;28;20127;-67
2021/10/21 06:34:02;;;;;;;41.80;7.05;;;;;;;;;;5067199;28;20126;-67
2021/10/21 06:36:29;;;;;;;58.78;6.50;;;;;;;;;;5058014;28;20103;-67
2021/10/21 06:38:55;;;;;;;37.50;6.50;;;;;;;;;;5062756;28;20095;-67
2021/10/21 06:41:22;;;;;;;49.97;5.65;;;;;;;;;;5062886;28;20049;-68
2021/10/21 06:43:48;;;;;;;51.83;6.45;;;;;;;;;;5064878;28;20092;-67
2021/10/21 06:46:15;;;;;;;41.58;5.57;;;;;;;;;;5064523;28;20083;-67
2021/10/21 06:48:42;;;;;;;41.10;6.67;;;;;;;;;;5064731;28;20076;-68
2021/10/21 06:51:08;;;;;;;52.55;6.78;;;;;;;;;;5065733;28;20845;-67
2021/10/21 06:53:35;;;;;;;53.78;6.40;;;;;;;;;;5058746;28;20087;-68
2021/10/21 06:56:01;;;;;;;35.97;6.27;;;;;;;;;;5061556;28;20123;-68
2021/10/21 06:58:28;;;;;;;48.70;6.68;;;;;;;;;;5057677;28;20296;-67
2021/10/21 07:00:55;;;;;;;43.63;6.57;;;;;;;;;;5067740;28;20457;-68
2021/10/21 07:03:22;;;;;;;;;;;;;;;;;;5061692;28;20132;-67
2021/10/21 07:05:51;;;;;;;40.97;5.78;;;;;;;;;;5059921;28;19924;-68
2021/10/21 07:08:18;;;;;;;43.03;6.20;;;;;;;;;;5061527;28;20076;-67
2021/10/21 07:10:45;;;;;;;;;;;;;;;;;;5064840;28;20075;-67
2021/10/21 07:13:12;;;;;;;37.45;5.43;;;;;;;;;;5061439;28;20006;-67
2021/10/21 07:15:58;;;;;;;41.00;5.85;;;;;;;;;;5067200;28;20040;-68
2021/10/21 07:18:25;;;;;;;49.55;6.05;;;;;;;;;;5062353;28;20060;-69
2021/10/21 07:20:51;;;;;;;53.53;6.03;;;;;;;;;;5063259;28;20131;-68
2021/10/21 07:23:18;;;;;;;46.88;6.25;;;;;;;;;;5061647;28;20056;-68
2021/10/21 07:25:45;;;;;;;47.80;6.38;;;;;;;;;;5066706;28;20697;-67
2021/10/21 07:28:11;;;;;;;55.72;6.50;;;;;;;;;;5062252;28;20124;-67
2021/10/21 07:30:38;;;;;;;49.30;6.15;;;;;;;;;;5050474;28;20049;-68
2021/10/21 07:33:05;;;;;;;48.05;6.38;;;;;;;;;;5063335;28;20139;-67
2021/10/21 07:35:32;;;;;;;51.50;5.95;;;;;;;;;;5057075;28;20052;-68
2021/10/21 07:37:59;;;;;;;48.60;6.47;;;;;;;;;;5062857;28;20141;-68
2021/10/21 07:40:26;;;;;;;51.80;6.50;;;;;;;;;;5062264;28;20912;-68
2021/10/21 07:42:52;;;;;;;42.65;5.78;;;;;;;;;;5067117;28;20136;-68
2021/10/21 07:45:19;;;;;;;40.45;5.70;;;;;;;;;;5057893;28;20504;-67
2021/10/21 07:47:46;;;;;;;41.00;6.35;;;;;;;;;;5054204;28;20044;-67
2021/10/21 07:50:14;;;;;;;38.33;5.45;;;;;;;;;;5054298;28;20110;-68
2021/10/21 07:52:42;;;;;;;34.55;4.53;;;;;;;;;;5056732;28;20599;-67
2021/10/21 07:55:10;;;;;;;44.20;4.75;;;;;;;;;;5062718;28;20221;-68
2021/10/21 07:57:36;;;;;;;32.58;4.78;;;;;;;;;;5065006;28;20732;-68
2021/10/21 08:00:04;;;;;;;41.75;4.97;;;;;;;;;;5062440;28;20135;-67
2021/10/21 08:02:31;;;;;;;30.67;5.25;;;;;;;;;;5064140;28;20072;-67
2021/10/21 08:04:58;;;;;;;43.85;5.28;;;;;;;;;;5066939;28;20439;-67
2021/10/21 08:07:26;;;;;;;45.42;4.65;;;;;;;;;;5066201;28;20484;-67
2021/10/21 08:09:53;;;;;;;47.42;5.40;;;;;;;;;;5064529;28;20088;-67
2021/10/21 08:12:19;;;;;;;32.40;4.82;;;;;;;;;;5066371;28;20068;-67
2021/10/21 08:14:46;;;;;;;26.80;4.25;;;;;;;;;;5068385;28;20584;-68
2021/10/21 08:17:13;;;;;;;29.95;4.07;;;;;;;;;;5067437;28;20165;-68
2021/10/21 08:19:39;;;;;;;28.55;3.90;;;;;;;;;;5064365;28;20087;-67
2021/10/21 08:22:06;;;;;;;25.58;3.78;;;;;;;;;;5064981;28;20072;-67
2021/10/21 08:24:32;;;;;;;34.15;4.45;;;;;;;;;;5063489;28;20087;-68
2021/10/21 08:26:59;;;;;;;29.95;3.35;;;;;;;;;;5064487;28;20577;-67
2021/10/21 08:29:25;;;;;;;32.92;3.75;;;;;;;;;;5065102;28;20149;-68
2021/10/21 08:32:03;;;;;;;23.17;3.10;;;;;;;;;;5064882;28;20132;-68
2021/10/21 08:34:30;;;;;;;22.30;3.17;;;;;;;;;;5067709;28;20057;-67
2021/10/21 08:36:57;;;;;;;34.38;3.75;;;;;;;;;;5071088;28;20123;-68
2021/10/21 08:39:23;;;;;;;25.05;3.03;;;;;;;;;;5064198;28;20102;-67
2021/10/21 08:41:50;;;;;;;23.85;3.15;;;;;;;;;;5059705;28;20135;-67
2021/10/21 08:44:17;;;;;;;30.40;3.40;;;;;;;;;;5062151;28;20090;-67
2021/10/21 08:46:44;;;;;;;17.45;2.70;;;;;;;;;;5059572;28;20088;-68
2021/10/21 08:49:11;;;;;;;22.58;3.35;;;;;;;;;;5066842;28;20135;-67
2021/10/21 08:51:38;;;;;;;17.67;2.85;;;;;;;;;;5061206;28;20099;-68
2021/10/21 08:54:05;;;;;;;17.67;2.22;;;;;;;;;;5065131;28;20084;-67
2021/10/21 08:56:32;;;;;;;19.17;2.67;;;;;;;;;;5064594;28;20088;-67
2021/10/21 08:59:00;;;;;;;19.85;2.33;;;;;;;;;;5065274;28;20137;-68
2021/10/21 09:01:42;;;;;;;12.27;2.08;;;;;;;;;;5064665;28;20048;-67
2021/10/21 09:09:24;;;;;;;12.50;2.47;;;;;;;;;;5065207;28;20143;-68
2021/10/21 09:12:04;;;;;;;17.85;2.17;;;;;;;;;;5065250;28;20083;-67
2021/10/21 09:14:35;;;;;;;9.52;1.60;;;;;;;;;;5049036;28;20071;-68
2021/10/21 09:17:02;;;;;;;10.43;2.00;;;;;;;;;;5063663;28;20084;-67
2021/10/21 09:19:29;;;;;;;7.40;1.67;;;;;;;;;;5069845;28;20110;-67
2021/10/21 09:22:04;;;;;;;12.82;1.90;;;;;;;;;;5065253;28;20102;-68
2021/10/21 09:24:30;;;;;;;10.30;1.70;;;;;;;;;;5064437;28;20049;-68
2021/10/21 09:27:09;;;;;;;11.20;1.85;;;;;;;;;;5069734;28;20144;-68
2021/10/21 09:29:42;;;;;;;6.82;1.45;;;;;;;;;;5058079;28;20131;-67
2021/10/21 09:32:09;;;;;;;10.95;1.38;;;;;;;;;;5061439;28;20124;-67
2021/10/21 09:34:50;;;;;;;7.57;1.48;;;;;;;;;;5068767;28;20679;-67
2021/10/21 09:37:18;;;;;;;9.15;1.60;;;;;;;;;;5066634;28;20087;-68
2021/10/21 09:39:47;;;;;;;6.68;1.30;;;;;;;;;;5063340;28;20095;-67
2021/10/21 09:42:14;;;;;;;7.22;1.77;;;;;;;;;;5066646;28;20080;-67
2021/10/21 09:44:41;;;;;;;4.60;1.00;;;;;;;;;;5065094;28;20085;-67
2021/10/21 09:47:17;;;;;;;8.07;1.17;;;;;;;;;;5065133;28;20077;-67
2021/10/21 09:49:47;;;;;;;7.30;1.83;;;;;;;;;;5064310;28;20585;-67
2021/10/21 09:52:14;;;;;;;4.50;1.27;;;;;;;;;;5059431;28;20551;-68
2021/10/21 09:54:41;;;;;;;9.88;1.23;;;;;;;;;;5063895;28;20164;-68
2021/10/21 09:57:28;;;;;;;7.65;2.03;;;;;;;;;;5059671;28;20056;-68
2021/10/21 10:00:06;;;;;;;12.35;1.85;;;;;;;;;;5065919;28;20470;-67
2021/10/21 10:02:33;;;;;;;11.27;2.42;;;;;;;;;;5062014;28;20084;-68
2021/10/21 10:05:02;;;;;;;10.25;1.58;;;;;;;;;;5063778;28;20071;-68
2021/10/21 10:07:29;;;;;;;11.15;1.45;;;;;;;;;;5063476;28;20049;-68
2021/10/21 10:09:59;;;;;;;4.63;1.50;;;;;;;;;;5061423;28;20168;-67
2021/10/21 10:12:30;;;;;;;4.57;1.42;;;;;;;;;;5065128;28;20087;-68
2021/10/21 10:14:58;;;;;;;6.50;1.23;;;;;;;;;;5066154;28;20605;-67
2021/10/21 10:17:26;;;;;;;7.28;1.30;;;;;;;;;;5059972;28;20075;-68
2021/10/21 10:19:53;;;;;;;11.05;1.25;;;;;;;;;;5065822;28;20087;-68
2021/10/21 10:22:28;;;;;;;9.05;1.15;;;;;;;;;;5067025;28;20084;-68
2021/10/21 10:24:54;;;;;;;5.63;1.27;;;;;;;;;;5065398;28;20084;-68
2021/10/21 10:27:32;;;;;;;5.88;1.80;;;;;;;;;;5058526;28;20099;-68
2021/10/21 10:30:00;;;;;;;10.27;1.23;;;;;;;;;;5062980;28;20135;-67
2021/10/21 10:32:41;;;;;;;7.13;1.60;;;;;;;;;;5064013;28;20040;-68
2021/10/21 10:35:09;;;;;;;8.40;1.77;;;;;;;;;;5061140;28;20048;-68
2021/10/21 10:37:56;;;;;;;6.47;1.58;;;;;;;;;;5062098;28;20618;-67
2021/10/21 10:40:38;;;;;;;9.30;1.65;;;;;;;;;;5067120;28;20670;-67
2021/10/21 10:43:05;;;;;;;11.05;1.45;;;;;;;;;;5067468;28;20135;-68
2021/10/21 10:45:43;;;;;;;2.17;0.63;;;;;;;;;;5063273;28;20063;-68
2021/10/21 10:48:10;;;;;;;6.85;0.90;;;;;;;;;;5061157;28;20048;-69
2021/10/21 10:50:43;;;;;;;5.80;0.80;;;;;;;;;;5060455;28;20131;-68
2021/10/21 10:53:10;;;;;;;3.08;1.13;;;;;;;;;;5061604;28;20076;-68
2021/10/21 10:55:36;;;;;;;6.87;1.30;;;;;;;;;;5066907;28;20076;-67
2021/10/21 10:58:03;;;;;;;8.77;1.00;;;;;;;;;;5060631;28;20377;-67
2021/10/21 11:00:38;;;;;;;5.33;0.93;;;;;;;;;;5058637;28;20082;-67
2021/10/21 11:03:06;;;;;;;5.57;0.93;;;;;;;;;;5064630;28;20098;-68
2021/10/21 11:05:45;;;;;;;5.32;1.17;;;;;;;;;;5058185;28;20152;-68
2021/10/21 11:08:13;;;;;;;3.67;1.00;;;;;;;;;;5060786;28;20496;-68
2021/10/21 11:10:44;;;;;;;7.78;1.55;;;;;;;;;;5059350;28;20138;-68
2021/10/21 11:13:18;;;;;;;4.80;0.85;;;;;;;;;;5057853;28;20048;-68
2021/10/21 11:15:46;;;;;;;5.00;0.82;;;;;;;;;;5067015;28;20077;-68
2021/10/21 11:18:20;;;;;;;5.80;1.20;;;;;;;;;;5061998;28;20159;-68
2021/10/21 11:20:47;;;;;;;5.53;1.15;;;;;;;;;;5057866;28;20072;-68
2021/10/21 11:23:25;;;;;;;5.55;0.88;;;;;;;;;;5061921;28;20087;-67
2021/10/21 11:25:55;;;;;;;4.07;0.80;;;;;;;;;;5062760;28;20071;-67
2021/10/21 11:28:26;;;;;;;5.15;0.85;;;;;;;;;;5061151;28;20082;-67
2021/10/21 11:30:54;;;;;;;3.03;0.75;;;;;;;;;;5064995;28;20567;-68
2021/10/21 11:33:20;;;;;;;5.15;0.93;;;;;;;;;;5062983;28;20083;-67
2021/10/21 11:35:47;;;;;;;8.63;0.95;;;;;;;;;;5055751;28;20080;-68
2021/10/21 11:38:17;;;;;;;8.70;1.30;;;;;;;;;;5065323;28;20091;-67
2021/10/21 11:40:48;;;;;;;4.47;0.70;;;;;;;;;;5065045;28;20813;-67
2021/10/21 11:43:14;;;;;;;6.80;1.25;;;;;;;;;;5065340;28;20513;-67
2021/10/21 11:45:41;;;;;;;9.68;1.45;;;;;;;;;;5064747;28;20075;-67
2021/10/21 11:48:10;;;;;;;3.13;1.02;;;;;;;;;;5065584;28;20071;-68
2021/10/21 11:50:42;;;;;;;4.28;0.85;;;;;;;;;;5063161;28;20133;-68
2021/10/21 11:53:11;;;;;;;1.98;0.73;;;;;;;;;;5064540;28;20143;-68
2021/10/21 11:55:39;;;;;;;5.97;1.38;;;;;;;;;;5068038;28;20565;-67
2021/10/21 11:58:10;;;;;;;5.82;0.75;;;;;;;;;;5066380;28;20575;-67
2021/10/21 12:00:37;;;;;;;2.78;1.00;;;;;;;;;;5067210;28;20132;-67
2021/10/21 12:03:04;;;;;;;3.30;1.17;;;;;;;;;;5057447;28;20049;-67
2021/10/21 12:05:31;;;;;;;1.80;0.70;;;;;;;;;;5059866;28;20065;-67
2021/10/21 12:08:00;;;;;;;4.88;1.00;;;;;;;;;;5064473;28;20095;-68
2021/10/21 12:10:31;;;;;;;4.40;1.08;;;;;;;;;;5064127;28;20052;-67
2021/10/21 12:12:57;;;;;;;6.22;1.45;;;;;;;;;;5063117;28;20505;-67
2021/10/21 12:15:26;;;;;;;3.80;1.17;;;;;;;;;;5067186;28;20088;-67
2021/10/21 12:17:53;;;;;;;3.42;0.85;;;;;;;;;;5066782;28;20854;-67
2021/10/21 12:20:30;;;;;;;4.35;0.85;;;;;;;;;;5052932;28;20418;-67
2021/10/21 12:22:57;;;;;;;4.30;1.10;;;;;;;;;;5064913;28;20099;-68
2021/10/21 12:25:30;;;;;;;2.38;1.02;;;;;;;;;;5068307;28;20139;-67
2021/10/21 12:28:03;;;;;;;2.33;0.90;;;;;;;;;;5063099;28;20127;-67
2021/10/21 12:30:36;;;;;;;3.28;0.93;;;;;;;;;;5061875;28;20139;-67
2021/10/21 12:33:06;;;;;;;4.20;1.02;;;;;;;;;;5067364;28;20076;-67
2021/10/21 12:35:33;;;;;;;2.80;1.08;;;;;;;;;;5070361;28;20059;-68
2021/10/21 12:38:03;;;;;;;4.40;0.63;;;;;;;;;;5068286;28;20094;-67
2021/10/21 12:40:34;;;;;;;5.72;0.85;;;;;;;;;;5067497;28;20132;-68
2021/10/21 12:43:11;;;;;;;3.58;0.77;;;;;;;;;;5067018;28;20548;-67
2021/10/21 12:45:37;;;;;;;3.08;0.90;;;;;;;;;;5063922;28;20083;-67
2021/10/21 12:48:19;;;;;;;4.22;0.60;;;;;;;;;;5062747;28;20044;-67
2021/10/21 12:50:45;;;;;;;3.20;0.70;;;;;;;;;;5060380;28;20131;-68
2021/10/21 12:53:13;;;;;;;2.75;0.77;;;;;;;;;;5055881;28;20049;-67
2021/10/21 12:55:39;;;;;;;2.50;0.88;;;;;;;;;;5064281;28;20111;-67
2021/10/21 12:58:06;;;;;;;4.32;0.70;;;;;;;;;;5069206;28;20079;-67
2021/10/21 13:00:35;;;;;;;9.15;0.88;;;;;;;;;;5063160;28;20139;-67
2021/10/21 13:03:02;;;;;;;2.30;0.50;;;;;;;;;;5059442;28;20094;-67
2021/10/21 13:05:29;;;;;;;3.85;0.70;;;;;;;;;;5061755;28;20110;-67
2021/10/21 13:07:56;;;;;;;2.10;0.60;;;;;;;;;;5064900;28;20075;-67
2021/10/21 13:10:23;;;;;;;;;;;;;;;;;;5064596;28;20630;-67
2021/10/21 13:12:50;;;;;;;3.90;0.82;;;;;;;;;;5058348;28;19955;-67
2021/10/21 13:15:17;;;;;;;1.67;0.45;;;;;;;;;;5064071;28;20083;-67
2021/10/21 13:17:43;;;;;;;1.35;0.60;;;;;;;;;;5060998;28;20552;-67
2021/10/21 13:20:10;;;;;;;1.52;0.55;;;;;;;;;;5062830;28;20079;-67
2021/10/21 13:22:40;;;;;;;4.10;0.85;;;;;;;;;;5063756;28;20079;-67
2021/10/21 13:25:08;;;;;;;2.97;0.50;;;;;;;;;;5061421;28;20052;-67
2021/10/21 13:27:35;;;;;;;2.10;0.50;;;;;;;;;;5064111;28;20068;-67
2021/10/21 13:30:05;;;;;;;5.70;1.00;;;;;;;;;;5064333;28;20057;-67
2021/10/21 13:32:32;;;;;;;4.72;1.00;;;;;;;;;;5066299;28;20087;-67
2021/10/21 13:34:59;;;;;;;3.92;1.00;;;;;;;;;;5068803;28;20139;-67
2021/10/21 13:37:26;;;;;;;6.53;0.90;;;;;;;;;;5060856;28;20551;-67
2021/10/21 13:39:52;;;;;;;3.53;0.73;;;;;;;;;;5066032;28;20083;-67
2021/10/21 13:42:19;;;;;;;1.33;0.67;;;;;;;;;;5068928;28;20072;-67
2021/10/21 13:44:46;;;;;;;2.22;0.93;;;;;;;;;;5063121;28;20094;-67
2021/10/21 13:47:12;;;;;;;1.65;0.70;;;;;;;;;;5059712;28;20127;-68
2021/10/21 13:49:40;;;;;;;5.53;0.80;;;;;;;;;;5060939;28;20072;-67
2021/10/21 13:52:07;;;;;;;5.28;0.80;;;;;;;;;;5057172;28;20095;-67
2021/10/21 13:54:34;;;;;;;3.65;0.85;;;;;;;;;;5066136;28;20080;-67
2021/10/21 13:57:01;;;;;;;1.85;0.90;;;;;;;;;;5063483;28;20068;-67
2021/10/21 13:59:27;;;;;;;2.60;0.77;;;;;;;;;;5066433;28;20079;-67
2021/10/21 14:01:53;;;;;;;1.45;0.70;;;;;;;;;;5060045;28;20041;-67
2021/10/21 14:04:20;;;;;;;2.20;0.55;;;;;;;;;;5065536;28;20117;-66
2021/10/21 14:06:47;;;;;;;10.10;0.73;;;;;;;;;;5062860;28;20523;-67
2021/10/21 14:09:14;;;;;;;1.80;0.45;;;;;;;;;;5060766;28;20136;-67
2021/10/21 14:11:40;;;;;;;5.07;0.50;;;;;;;;;;5059836;28;20136;-67
2021/10/21 14:14:07;;;;;;;1.52;0.50;;;;;;;;;;5055359;28;20359;-66
2021/10/21 14:16:36;;;;;;;2.13;0.80;;;;;;;;;;5065608;28;20084;-67
2021/10/21 14:19:03;;;;;;;0.75;0.52;;;;;;;;;;5060014;28;20080;-66
2021/10/21 14:21:29;;;;;;;2.03;0.80;;;;;;;;;;5061506;28;20048;-67
2021/10/21 14:23:56;;;;;;;0.65;0.40;;;;;;;;;;5059462;28;20052;-67
2021/10/21 14:26:22;;;;;;;3.53;0.70;;;;;;;;;;5061713;28;20114;-66
2021/10/21 14:28:49;;;;;;;2.05;0.60;;;;;;;;;;5060941;28;20131;-66
2021/10/21 14:31:15;;;;;;;5.32;0.60;;;;;;;;;;5062265;28;20102;-66
2021/10/21 14:33:42;;;;;;;2.78;0.70;;;;;;;;;;5066221;28;20047;-66
2021/10/21 14:36:09;;;;;;;3.20;0.60;;;;;;;;;;5059798;28;20084;-67
2021/10/21 14:38:36;;;;;;;1.50;0.68;;;;;;;;;;5066764;28;20132;-66
2021/10/21 14:41:03;;;;;;;2.85;0.80;;;;;;;;;;5063288;28;20048;-66
2021/10/21 14:43:29;;;;;;;3.53;0.70;;;;;;;;;;5058891;28;20515;-66
2021/10/21 14:45:56;;;;;;;2.08;0.77;;;;;;;;;;5061622;28;20041;-66